Time;durP1;ratioP1;P1;durP2;ratioP2;P2;SDS_P1;SDS_P2;PMS_P1;PMS_P2;Temp;Humidity;BMP_temperature;BMP_pressure;BME280_temperature;BME280_humidity;BME280_pressure;Samples;Min_cycle;Max_cycle;Signal;HPM_P1;HPM_P2
2021/09/24 00:00:12;;;;;;;8.53;5.27;;;;;;;7.97;100.00;94182.81;5116789;28;20198;-77
2021/09/24 00:02:38;;;;;;;8.67;5.20;;;;;;;7.88;100.00;94186.47;5116616;28;20660;-76
2021/09/24 00:05:05;;;;;;;12.37;6.30;;;;;;;7.91;100.00;94178.31;5116866;28;20288;-76
2021/09/24 00:07:32;;;;;;;10.77;5.40;;;;;;;8.18;100.00;94181.34;5116752;28;20204;-76
2021/09/24 00:09:58;;;;;;;12.53;5.73;;;;;;;8.14;100.00;94179.13;5116715;28;20204;-76
2021/09/24 00:12:25;;;;;;;8.40;5.30;;;;;;;8.06;100.00;94180.97;5116619;28;20197;-76
2021/09/24 00:14:51;;;;;;;8.63;5.17;;;;;;;7.96;100.00;94174.22;5116391;28;20225;-76
2021/09/24 00:17:19;;;;;;;7.50;4.70;;;;;;;7.92;100.00;94169.53;5116673;28;20204;-76
2021/09/24 00:19:46;;;;;;;12.43;5.17;;;;;;;8.03;100.00;94169.13;5116684;28;20597;-77
2021/09/24 00:22:12;;;;;;;12.20;5.10;;;;;;;7.91;100.00;94171.34;5116380;28;20194;-76
2021/09/24 00:24:39;;;;;;;10.87;5.87;;;;;;;8.06;100.00;94155.78;5116184;28;20695;-76
2021/09/24 00:27:06;;;;;;;15.43;6.23;;;;;;;8.24;100.00;94157.25;5116164;28;20583;-76
2021/09/24 00:29:32;;;;;;;9.23;5.37;;;;;;;8.06;100.00;94160.16;5116125;28;20564;-76
2021/09/24 00:31:59;;;;;;;8.73;5.30;;;;;;;8.03;100.00;94158.72;5116417;28;20193;-76
2021/09/24 00:34:27;;;;;;;8.93;5.00;;;;;;;7.93;100.00;94160.75;5116286;28;20556;-76
2021/09/24 00:36:53;;;;;;;9.47;4.70;;;;;;;7.82;100.00;94153.38;5116251;28;20224;-76
2021/09/24 00:39:20;;;;;;;12.13;5.20;;;;;;;7.84;100.00;94147.00;5115047;28;20563;-76
2021/09/24 00:41:46;;;;;;;10.23;5.13;;;;;;;7.63;100.00;94147.66;5116221;28;20255;-77
2021/09/24 00:44:13;;;;;;;8.33;4.87;;;;;;;7.38;100.00;94145.22;5115796;28;20232;-75
2021/09/24 00:46:39;;;;;;;7.50;4.50;;;;;;;7.33;100.00;94144.13;5116151;28;20208;-77
2021/09/24 00:49:06;;;;;;;8.33;5.00;;;;;;;7.31;100.00;94146.88;5113403;28;20204;-77
2021/09/24 00:51:33;;;;;;;17.40;6.13;;;;;;;7.44;100.00;94145.50;5114657;28;20198;-76
2021/09/24 00:54:01;;;;;;;13.10;6.37;;;;;;;7.59;100.00;94148.97;5115771;28;20681;-76
2021/09/24 00:56:28;;;;;;;18.97;6.30;;;;;;;7.53;100.00;94141.88;5115683;28;20563;-76
2021/09/24 00:58:54;;;;;;;14.87;5.70;;;;;;;7.35;100.00;94140.34;5115962;28;20198;-77
2021/09/24 01:01:20;;;;;;;10.57;6.10;;;;;;;7.30;100.00;94150.44;5115677;28;20205;-77
2021/09/24 01:03:48;;;;;;;12.47;5.07;;;;;;;7.15;100.00;94147.75;5115671;28;20229;-77
2021/09/24 01:06:15;;;;;;;11.30;5.57;;;;;;;7.06;100.00;94147.97;5115705;28;20197;-76
2021/09/24 01:08:43;;;;;;;13.87;6.07;;;;;;;6.96;100.00;94156.78;5115497;28;20233;-77
2021/09/24 01:11:10;;;;;;;13.57;6.20;;;;;;;7.03;100.00;94142.16;5115454;28;20197;-77
2021/09/24 01:13:36;;;;;;;15.40;7.40;;;;;;;7.36;100.00;94149.78;5114871;28;20648;-76
2021/09/24 01:16:03;;;;;;;16.50;7.03;;;;;;;7.37;100.00;94146.19;5115432;28;20204;-76
2021/09/24 01:18:30;;;;;;;19.33;7.80;;;;;;;7.50;100.00;94144.81;5115385;28;20198;-76
2021/09/24 01:20:57;;;;;;;15.00;7.63;;;;;;;7.42;100.00;94143.06;5115323;28;20197;-77
2021/09/24 01:23:25;;;;;;;22.43;9.60;;;;;;;7.70;100.00;94138.19;5115193;28;20245;-77
2021/09/24 01:25:51;;;;;;;19.60;7.63;;;;;;;7.52;100.00;94137.66;5114938;28;20252;-76
2021/09/24 01:28:18;;;;;;;15.13;6.70;;;;;;;7.31;100.00;94131.31;5115355;28;20220;-77
2021/09/24 01:30:45;;;;;;;22.33;7.27;;;;;;;7.35;100.00;94131.75;5115396;28;20204;-77
2021/09/24 01:33:11;;;;;;;13.90;6.73;;;;;;;7.22;100.00;94132.31;5115329;27;20205;-77
2021/09/24 01:35:38;;;;;;;12.67;6.60;;;;;;;7.21;100.00;94128.91;5115156;28;20258;-77
2021/09/24 01:38:04;;;;;;;13.70;7.00;;;;;;;7.27;100.00;94117.03;5114886;28;20678;-77
2021/09/24 01:40:32;;;;;;;14.77;6.47;;;;;;;7.25;100.00;94126.78;5114915;28;20208;-77
2021/09/24 01:42:58;;;;;;;16.37;7.37;;;;;;;7.23;100.00;94118.34;5115067;28;20198;-76
2021/09/24 01:45:25;;;;;;;17.67;8.50;;;;;;;7.40;100.00;94116.47;5114921;28;20225;-76
2021/09/24 01:47:51;;;;;;;16.93;7.60;;;;;;;7.43;100.00;94123.09;5114932;28;20213;-77
2021/09/24 01:50:19;;;;;;;18.73;7.20;;;;;;;7.25;100.00;94119.00;5114310;28;20250;-76
2021/09/24 01:52:45;;;;;;;14.20;7.63;;;;;;;7.36;100.00;94118.59;5114534;28;20201;-76
2021/09/24 01:55:12;;;;;;;24.47;9.60;;;;;;;7.66;100.00;94121.34;5114825;28;20204;-76
2021/09/24 01:57:41;;;;;;;15.63;7.73;;;;;;;7.42;100.00;94114.50;5114462;28;20723;-76
2021/09/24 02:00:10;;;;;;;14.47;6.73;;;;;;;7.19;100.00;94117.91;5114749;28;20541;-76
2021/09/24 02:02:36;;;;;;;12.77;6.83;;;;;;;7.14;100.00;94116.78;5114430;28;20586;-76
2021/09/24 02:05:03;;;;;;;14.27;6.47;;;;;;;7.05;100.00;94108.22;5114384;28;20283;-76
2021/09/24 02:07:30;;;;;;;16.93;7.20;;;;;;;7.19;100.00;94102.31;5114356;28;20208;-77
2021/09/24 02:09:56;;;;;;;20.23;7.70;;;;;;;7.28;100.00;94105.66;5114657;28;20201;-76
2021/09/24 02:12:23;;;;;;;14.00;6.40;;;;;;;7.00;100.00;94103.53;5114299;28;20667;-76
2021/09/24 02:14:50;;;;;;;13.90;6.67;;;;;;;7.00;100.00;94108.72;5114335;28;20269;-76
2021/09/24 02:17:17;;;;;;;15.47;6.67;;;;;;;6.85;100.00;94100.06;5114319;28;20193;-76
2021/09/24 02:19:43;;;;;;;13.57;6.73;;;;;;;7.04;100.00;94099.66;5114137;28;20250;-75
2021/09/24 02:22:10;;;;;;;21.43;8.40;;;;;;;7.02;100.00;94103.38;5114031;28;20205;-76
2021/09/24 02:24:36;;;;;;;19.97;7.57;;;;;;;6.99;100.00;94101.13;5113980;28;20229;-76
2021/09/24 02:27:04;;;;;;;16.50;7.30;;;;;;;6.94;100.00;94108.59;5113843;28;20221;-76
2021/09/24 02:29:31;;;;;;;21.17;8.73;;;;;;;7.21;100.00;94100.34;5114048;28;20205;-76
2021/09/24 02:31:58;;;;;;;23.67;8.47;;;;;;;7.14;100.00;94104.59;5114051;28;20220;-76
2021/09/24 02:34:25;;;;;;;16.53;8.13;;;;;;;6.88;100.00;94112.69;5113829;28;20599;-77
2021/09/24 02:36:51;;;;;;;15.93;7.17;;;;;;;6.91;100.00;94111.53;5114128;28;20209;-76
2021/09/24 02:39:18;;;;;;;19.43;8.87;;;;;;;7.02;100.00;94105.97;5113958;28;20212;-76
2021/09/24 02:41:44;;;;;;;15.77;7.20;;;;;;;6.88;100.00;94104.91;5113663;28;20201;-77
2021/09/24 02:44:12;;;;;;;14.00;7.30;;;;;;;6.72;100.00;94103.19;5113836;28;20225;-76
2021/09/24 02:46:39;;;;;;;22.30;8.10;;;;;;;6.80;100.00;94100.56;5113922;28;20197;-77
2021/09/24 02:49:07;;;;;;;17.47;8.07;;;;;;;6.74;100.00;94103.81;5113724;28;20197;-77
2021/09/24 02:51:33;;;;;;;14.40;7.47;;;;;;;6.74;100.00;94103.03;5113777;28;20197;-76
2021/09/24 02:54:00;;;;;;;20.00;8.50;;;;;;;6.74;100.00;94108.22;5113703;28;20212;-77
2021/09/24 02:56:27;;;;;;;20.40;8.53;;;;;;;6.81;100.00;94106.53;5113813;28;20200;-76
2021/09/24 02:58:53;;;;;;;22.93;9.73;;;;;;;6.98;100.00;94102.91;5113601;28;20201;-76
2021/09/24 03:01:19;;;;;;;23.53;9.97;;;;;;;7.07;100.00;94108.06;5113643;28;20205;-76
2021/09/24 03:03:46;;;;;;;21.03;9.57;;;;;;;7.09;100.00;94108.69;5113234;28;20205;-76
2021/09/24 03:06:14;;;;;;;19.10;9.20;;;;;;;7.00;100.00;94108.72;5113781;28;20201;-75
2021/09/24 03:08:40;;;;;;;24.77;9.83;;;;;;;7.05;100.00;94105.63;5113608;28;20201;-76
2021/09/24 03:11:09;;;;;;;22.53;9.60;;;;;;;7.18;100.00;94107.69;5113505;28;20201;-76
2021/09/24 03:13:36;;;;;;;24.97;10.13;;;;;;;7.24;100.00;94104.38;5113436;28;20201;-76
2021/09/24 03:16:03;;;;;;;28.50;10.53;;;;;;;7.26;100.00;94099.84;5113412;28;20201;-76
2021/09/24 03:18:29;;;;;;;26.43;10.60;;;;;;;7.29;100.00;94101.28;5113383;28;20197;-76
2021/09/24 03:20:56;;;;;;;31.37;12.17;;;;;;;7.37;100.00;94102.03;5113035;28;20193;-76
2021/09/24 03:23:23;;;;;;;30.77;10.80;;;;;;;7.34;100.00;94098.97;5113361;28;20204;-76
2021/09/24 03:25:50;;;;;;;26.57;11.60;;;;;;;7.42;100.00;94096.31;5113176;28;20232;-77
2021/09/24 03:28:17;;;;;;;32.57;12.77;;;;;;;7.52;100.00;94096.88;5113296;28;20224;-76
2021/09/24 03:30:44;;;;;;;30.03;12.90;;;;;;;7.57;100.00;94085.97;5113239;28;20227;-77
2021/09/24 03:33:11;;;;;;;37.37;13.73;;;;;;;7.78;100.00;94090.53;5113166;28;20651;-76
2021/09/24 03:35:38;;;;;;;35.97;13.33;;;;;;;7.80;100.00;94092.97;5113123;28;20663;-77
2021/09/24 03:38:04;;;;;;;33.53;14.63;;;;;;;7.91;100.00;94093.34;5113294;28;20559;-77
2021/09/24 03:40:32;;;;;;;35.80;12.73;;;;;;;7.90;100.00;94093.53;5113181;28;20208;-76
2021/09/24 03:42:59;;;;;;;35.53;12.67;;;;;;;7.81;100.00;94094.56;5113181;28;20208;-77
2021/09/24 03:45:27;;;;;;;34.23;12.63;;;;;;;7.75;100.00;94094.28;5112871;28;20233;-76
2021/09/24 03:47:54;;;;;;;28.27;10.70;;;;;;;7.56;100.00;94097.34;5113161;28;20288;-76
2021/09/24 03:50:21;;;;;;;26.20;11.17;;;;;;;7.56;100.00;94102.53;5113031;28;20207;-77
2021/09/24 03:52:47;;;;;;;27.37;10.93;;;;;;;7.57;100.00;94098.97;5113133;28;20201;-76
2021/09/24 03:55:14;;;;;;;21.57;10.77;;;;;;;7.57;100.00;94104.97;5113012;28;20213;-76
2021/09/24 03:57:41;;;;;;;27.60;11.33;;;;;;;7.54;100.00;94104.50;5112913;28;20197;-75
2021/09/24 04:00:09;;;;;;;32.70;11.83;;;;;;;7.55;100.00;94100.94;5112988;28;20559;-76
2021/09/24 04:02:35;;;;;;;28.87;11.27;;;;;;;7.54;100.00;94101.91;5112985;28;20220;-77
2021/09/24 04:05:02;;;;;;;23.43;10.10;;;;;;;7.44;100.00;94104.75;5112792;28;20702;-77
2021/09/24 04:07:28;;;;;;;23.10;10.23;;;;;;;7.48;100.00;94107.81;5112993;28;20208;-76
2021/09/24 04:09:55;;;;;;;26.57;9.43;;;;;;;7.43;100.00;94102.31;5112805;28;20651;-76
2021/09/24 04:12:21;;;;;;;22.50;9.40;;;;;;;7.35;100.00;94111.78;5112712;28;20205;-75
2021/09/24 04:14:49;;;;;;;16.13;8.13;;;;;;;7.04;100.00;94104.84;5114874;28;20212;-77
2021/09/24 04:17:15;;;;;;;19.40;9.23;;;;;;;7.13;100.00;94108.19;5116565;28;20656;-76
2021/09/24 04:19:42;;;;;;;21.83;9.90;;;;;;;7.10;100.00;94111.13;5116594;28;20201;-76
2021/09/24 04:22:08;;;;;;;26.50;10.87;;;;;;;7.30;100.00;94111.50;5116522;28;20193;-76
2021/09/24 04:24:35;;;;;;;23.33;9.37;;;;;;;7.14;100.00;94111.59;5116253;28;20233;-76
2021/09/24 04:27:01;;;;;;;30.00;11.07;;;;;;;7.26;100.00;94102.44;5116170;28;20241;-76
2021/09/24 04:29:28;;;;;;;33.53;13.33;;;;;;;7.54;100.00;94105.34;5116620;28;20200;-76
2021/09/24 04:31:55;;;;;;;28.90;11.33;;;;;;;7.36;100.00;94112.59;5116418;28;20209;-76
2021/09/24 04:34:22;;;;;;;28.33;11.67;;;;;;;7.46;100.00;94107.16;5116335;28;20206;-76
2021/09/24 04:36:49;;;;;;;39.00;13.87;;;;;;;7.69;100.00;94113.16;5116141;28;20556;-76
2021/09/24 04:39:16;;;;;;;40.03;14.17;;;;;;;7.82;100.00;94101.38;5116196;28;20209;-76
2021/09/24 04:41:42;;;;;;;35.87;13.57;;;;;;;7.88;100.00;94111.09;5115936;28;20209;-76
2021/09/24 04:44:09;;;;;;;33.75;14.05;;;;;;;7.80;100.00;94105.97;5115408;28;20439;-76
2021/09/24 04:46:35;;;;;;;26.03;10.97;;;;;;;7.72;100.00;94107.63;5116049;28;20197;-76
2021/09/24 04:49:03;;;;;;;30.27;11.93;;;;;;;7.97;100.00;94103.03;5116163;28;20197;-76
2021/09/24 04:51:36;;;;;;;39.13;13.87;;;;;;;8.14;100.00;94110.69;5116319;28;20212;-76
2021/09/24 04:54:02;;;;;;;37.73;12.70;;;;;;;8.11;100.00;94111.84;5115813;28;20208;-76
2021/09/24 04:56:29;;;;;;;29.07;10.03;;;;;;;7.93;100.00;94111.38;5116029;28;20201;-76
2021/09/24 04:58:55;;;;;;;21.43;9.77;;;;;;;7.78;100.00;94106.94;5115668;28;20712;-76
2021/09/24 05:01:22;;;;;;;18.43;8.87;;;;;;;7.53;100.00;94113.31;5115704;28;20198;-76
2021/09/24 05:03:48;;;;;;;22.40;9.23;;;;;;;7.54;100.00;94109.72;5115620;28;20208;-76
2021/09/24 05:06:16;;;;;;;19.03;9.07;;;;;;;7.35;100.00;94109.19;5115592;28;20232;-76
2021/09/24 05:08:42;;;;;;;24.47;9.43;;;;;;;7.21;100.00;94104.72;5115529;28;20212;-76
2021/09/24 05:11:09;;;;;;;25.47;10.93;;;;;;;7.34;100.00;94107.56;5115787;28;20197;-76
2021/09/24 05:13:35;;;;;;;35.63;12.83;;;;;;;7.69;100.00;94100.16;5115021;28;20198;-76
2021/09/24 05:16:02;;;;;;;36.83;12.87;;;;;;;7.57;100.00;94109.38;5115472;28;20197;-77
2021/09/24 05:18:28;;;;;;;32.33;11.97;;;;;;;7.56;100.00;94107.75;5115449;28;20208;-77
2021/09/24 05:20:55;;;;;;;28.90;12.43;;;;;;;7.49;100.00;94099.03;5115316;28;20201;-77
2021/09/24 05:23:22;;;;;;;42.40;16.85;;;;;;;7.59;100.00;94107.41;5114326;28;20435;-76
2021/09/24 05:25:49;;;;;;;39.53;13.63;;;;;;;7.64;100.00;94112.06;5114133;28;20241;-76
2021/09/24 05:28:15;;;;;;;36.83;13.20;;;;;;;7.64;100.00;94104.28;5115374;28;20208;-77
2021/09/24 05:30:42;;;;;;;35.20;13.77;;;;;;;7.68;100.00;94105.56;5115093;28;20218;-76
2021/09/24 05:33:08;;;;;;;34.77;12.50;;;;;;;7.62;100.00;94107.06;5115176;28;20598;-76
2021/09/24 05:35:35;;;;;;;34.03;11.97;;;;;;;7.59;100.00;94110.00;5115008;28;20201;-77
2021/09/24 05:38:02;;;;;;;31.83;11.23;;;;;;;7.46;100.00;94112.34;5114970;28;20220;-75
2021/09/24 05:40:29;;;;;;;33.20;11.90;;;;;;;7.49;100.00;94102.44;5115121;28;20205;-76
2021/09/24 05:42:56;;;;;;;33.37;12.77;;;;;;;7.59;100.00;94107.41;5115020;28;20231;-76
2021/09/24 05:45:22;;;;;;;29.27;12.20;;;;;;;7.56;100.00;94102.53;5114846;28;20232;-76
2021/09/24 05:47:49;;;;;;;31.53;11.70;;;;;;;7.49;100.00;94102.44;5114876;28;20254;-76
2021/09/24 05:50:16;;;;;;;24.83;11.03;;;;;;;7.44;100.00;94109.94;5114704;28;20197;-76
2021/09/24 05:52:45;;;;;;;30.33;11.80;;;;;;;7.53;100.00;94110.72;5114955;28;20201;-76
2021/09/24 05:55:12;;;;;;;37.97;13.10;;;;;;;7.69;100.00;94105.38;5114845;28;20197;-75
2021/09/24 05:57:41;;;;;;;36.10;13.60;;;;;;;7.69;100.00;94107.16;5114591;28;20672;-76
2021/09/24 06:00:11;;;;;;;29.47;12.10;;;;;;;7.75;100.00;94112.47;5114725;28;20198;-76
2021/09/24 06:02:37;;;;;;;35.17;13.20;;;;;;;7.77;100.00;94110.50;5114550;28;20660;-76
2021/09/24 06:05:05;;;;;;;32.50;13.07;;;;;;;7.80;100.00;94105.97;5114344;28;20244;-76
2021/09/24 06:07:31;;;;;;;39.33;12.60;;;;;;;7.75;100.00;94109.88;5114470;28;20205;-76
2021/09/24 06:09:58;;;;;;;38.80;13.43;;;;;;;7.78;100.00;94106.13;5114518;28;20205;-76
2021/09/24 06:12:24;;;;;;;35.70;14.03;;;;;;;7.83;100.00;94102.97;5114445;28;20205;-76
2021/09/24 06:14:53;;;;;;;33.83;13.77;;;;;;;7.94;100.00;94110.38;5114304;28;20193;-76
2021/09/24 06:17:19;;;;;;;36.57;14.17;;;;;;;7.98;100.00;94106.44;5114211;28;20194;-76
2021/09/24 06:19:45;;;;;;;36.30;13.07;;;;;;;8.00;100.00;94111.47;5114089;28;20197;-76
2021/09/24 06:22:12;;;;;;;34.40;12.87;;;;;;;8.02;100.00;94110.31;5114008;28;20655;-76
2021/09/24 06:24:38;;;;;;;41.07;17.87;;;;;;;8.15;100.00;94107.09;5113078;28;20431;-76
2021/09/24 06:27:14;;;;;;;36.40;14.73;;;;;;;8.20;100.00;94109.19;5113932;28;20595;-76
2021/09/24 06:29:40;;;;;;;38.27;14.77;;;;;;;8.31;100.00;94101.75;5114030;28;20673;-76
2021/09/24 06:32:09;;;;;;;38.63;13.30;;;;;;;8.39;100.00;94103.44;5113889;28;20200;-76
2021/09/24 06:34:36;;;;;;;32.17;13.73;;;;;;;8.42;100.00;94107.50;5114043;28;20198;-76
2021/09/24 06:37:03;;;;;;;38.50;13.53;;;;;;;8.43;100.00;94109.94;5113580;28;20292;-76
2021/09/24 06:39:29;;;;;;;34.37;13.53;;;;;;;8.50;100.00;94110.84;5113905;28;20236;-76
2021/09/24 06:41:56;;;;;;;38.40;13.80;;;;;;;8.61;100.00;94116.56;5113872;28;20194;-76
2021/09/24 06:44:22;;;;;;;34.67;13.57;;;;;;;8.71;100.00;94104.13;5113653;28;20205;-76
2021/09/24 06:46:49;;;;;;;43.77;14.67;;;;;;;8.85;100.00;94108.50;5113880;28;20228;-76
2021/09/24 06:49:16;;;;;;;36.70;13.40;;;;;;;8.87;100.00;94119.53;5113561;28;20675;-76
2021/09/24 06:51:43;;;;;;;34.10;13.20;;;;;;;8.96;100.00;94116.81;5113772;28;20197;-76
2021/09/24 06:54:10;;;;;;;37.83;13.83;;;;;;;9.03;100.00;94123.75;5113666;28;20220;-76
2021/09/24 06:56:36;;;;;;;34.37;13.50;;;;;;;9.11;100.00;94122.84;5113565;28;20205;-76
2021/09/24 06:59:03;;;;;;;33.30;12.77;;;;;;;9.23;100.00;94120.56;5113446;28;20212;-76
2021/09/24 07:01:29;;;;;;;37.00;12.63;;;;;;;9.32;100.00;94122.06;5113889;28;20204;-77
2021/09/24 07:03:56;;;;;;;37.90;12.87;;;;;;;9.46;100.00;94117.81;5113587;28;20201;-76
2021/09/24 07:06:23;;;;;;;29.20;11.73;;;;;;;9.63;100.00;94120.97;5113477;28;20618;-76
2021/09/24 07:08:50;;;;;;;28.83;12.80;;;;;;;9.82;100.00;94122.16;5113515;28;20197;-77
2021/09/24 07:11:16;;;;;;;33.93;12.77;;;;;;;10.00;100.00;94122.50;5113492;28;20201;-76
2021/09/24 07:13:45;;;;;;;31.63;13.43;;;;;;;10.09;100.00;94123.19;5113318;28;20220;-76
2021/09/24 07:16:12;;;;;;;28.30;12.97;;;;;;;10.22;100.00;94125.06;5113625;28;20204;-76
2021/09/24 07:18:38;;;;;;;29.70;12.03;;;;;;;10.34;100.00;94126.22;5113020;28;20200;-76
2021/09/24 07:21:05;;;;;;;29.00;11.87;;;;;;;10.53;100.00;94119.50;5113387;28;20208;-76
2021/09/24 07:23:32;;;;;;;24.60;11.43;;;;;;;10.74;100.00;94126.47;5113270;28;20201;-76
2021/09/24 07:25:59;;;;;;;28.67;13.43;;;;;;;10.93;100.00;94127.56;5113014;28;20236;-77
2021/09/24 07:28:25;;;;;;;30.20;13.20;;;;;;;11.11;100.00;94126.25;5113110;28;20208;-76
2021/09/24 07:30:52;;;;;;;24.73;12.23;;;;;;;11.26;100.00;94131.34;5113178;28;20725;-76
2021/09/24 07:33:18;;;;;;;25.17;12.50;;;;;;;11.41;100.00;94126.75;5113314;28;20193;-77
2021/09/24 07:35:44;;;;;;;26.03;11.60;;;;;;;11.56;100.00;94125.78;5113211;28;20212;-76
2021/09/24 07:38:11;;;;;;;23.63;11.40;;;;;;;11.68;100.00;94128.63;5113193;28;20194;-76
2021/09/24 07:40:39;;;;;;;25.10;12.23;;;;;;;11.77;100.00;94128.22;5113049;28;20208;-77
2021/09/24 07:43:05;;;;;;;22.63;11.67;;;;;;;11.94;100.00;94128.69;5113103;28;20258;-76
2021/09/24 07:45:32;;;;;;;28.53;13.20;;;;;;;12.04;100.00;94133.53;5112982;28;20228;-76
2021/09/24 07:47:58;;;;;;;25.15;11.45;;;;;;;12.17;100.00;94123.09;5113217;28;20202;-76
2021/09/24 07:50:25;;;;;;;19.80;10.50;;;;;;;12.29;100.00;94132.94;5116438;28;20250;-77
2021/09/24 07:52:51;;;;;;;24.73;11.40;;;;;;;12.30;100.00;94131.94;5117082;28;20205;-77
2021/09/24 07:55:18;;;;;;;19.38;10.20;;;;;;;12.44;100.00;94138.78;5116857;28;20201;-76
2021/09/24 07:57:49;;;;;;;17.77;9.80;;;;;;;12.66;100.00;94133.31;5116879;28;20655;-77
2021/09/24 08:00:16;;;;;;;16.80;8.82;;;;;;;12.84;100.00;94140.50;5117087;28;20250;-76
2021/09/24 08:02:42;;;;;;;12.50;8.18;;;;;;;12.95;100.00;94145.94;5116996;28;20201;-76
2021/09/24 08:05:10;;;;;;;13.00;8.23;;;;;;;13.02;100.00;94138.03;5116893;28;20208;-77
2021/09/24 08:07:36;;;;;;;13.18;8.45;;;;;;;13.12;100.00;94140.22;5116768;27;20233;-76
2021/09/24 08:10:04;;;;;;;9.82;6.70;;;;;;;13.39;100.00;94141.00;5117094;28;20198;-76
2021/09/24 08:12:30;;;;;;;12.15;6.75;;;;;;;13.48;100.00;94141.56;5116878;28;20193;-76
2021/09/24 08:14:58;;;;;;;10.82;6.22;;;;;;;13.51;100.00;94149.00;5116716;28;20201;-75
2021/09/24 08:17:24;;;;;;;8.40;5.68;;;;;;;13.57;100.00;94147.34;5116734;28;20201;-76
2021/09/24 08:19:51;;;;;;;11.75;6.05;;;;;;;13.74;100.00;94147.66;5116569;28;20201;-76
2021/09/24 08:22:17;;;;;;;7.95;5.10;;;;;;;13.76;100.00;94148.28;5116412;28;20274;-76
2021/09/24 08:24:44;;;;;;;5.93;4.43;;;;;;;13.87;100.00;94144.97;5116447;28;20625;-76
2021/09/24 08:27:11;;;;;;;8.18;5.10;;;;;;;13.97;100.00;94139.25;5116094;28;20266;-76
2021/09/24 08:29:37;;;;;;;7.90;4.65;;;;;;;14.10;100.00;94143.63;5116226;28;20648;-75
2021/09/24 08:32:06;;;;;;;6.90;4.50;;;;;;;14.25;100.00;94144.94;5116443;28;20200;-76
2021/09/24 08:34:32;;;;;;;6.40;4.07;;;;;;;14.39;100.00;94143.00;5116339;28;20193;-76
2021/09/24 08:36:59;;;;;;;7.88;4.85;;;;;;;14.51;100.00;94147.53;5116108;28;20253;-76
2021/09/24 08:39:25;;;;;;;7.45;4.13;;;;;;;14.59;100.00;94144.69;5116249;28;20212;-77
2021/09/24 08:41:52;;;;;;;6.95;4.57;;;;;;;14.66;100.00;94145.41;5116245;28;20255;-76
2021/09/24 08:44:23;;;;;;;6.13;4.20;;;;;;;14.75;100.00;94149.34;5116130;28;20567;-76
2021/09/24 08:46:49;;;;;;;8.48;5.18;;;;;;;14.76;100.00;94143.09;5115195;28;20454;-76
2021/09/24 08:49:19;;;;;;;5.88;3.80;;;;;;;14.77;100.00;94152.59;5115906;28;20197;-77
2021/09/24 08:51:46;;;;;;;4.95;3.70;;;;;;;14.71;100.00;94152.66;5116269;28;20236;-76
2021/09/24 08:54:13;;;;;;;8.15;3.55;;;;;;;14.82;100.00;94153.75;5116043;28;20208;-77
2021/09/24 08:56:39;;;;;;;5.50;3.97;;;;;;;14.83;100.00;94148.28;5115977;28;20193;-77
2021/09/24 08:59:06;;;;;;;7.55;4.13;;;;;;;14.99;100.00;94155.59;5114767;28;20484;-75
2021/09/24 09:01:32;;;;;;;8.13;3.95;;;;;;;14.86;100.00;94154.94;5115611;28;20250;-77
2021/09/24 09:03:59;;;;;;;7.57;3.45;;;;;;;14.98;100.00;94153.19;5115574;28;20197;-77
2021/09/24 09:06:30;;;;;;;6.47;3.88;;;;;;;15.21;100.00;94157.00;5115429;28;20315;-77
2021/09/24 09:09:03;;;;;;;8.75;4.30;;;;;;;15.22;100.00;94155.97;5115761;28;20205;-77
2021/09/24 09:11:30;;;;;;;6.63;4.10;;;;;;;15.17;100.00;94152.19;5115706;28;20258;-76
2021/09/24 09:14:01;;;;;;;6.15;4.10;;;;;;;15.30;100.00;94159.09;5115475;28;20200;-77
2021/09/24 09:16:29;;;;;;;8.15;3.65;;;;;;;15.41;100.00;94162.03;5114955;28;20227;-76
2021/09/24 09:19:07;;;;;;;5.15;3.50;;;;;;;15.42;100.00;94153.94;5115511;28;20198;-76
2021/09/24 09:21:37;;;;;;;6.10;3.33;;;;;;;15.47;100.00;94154.06;5115599;28;20197;-76
2021/09/24 09:24:15;;;;;;;5.82;3.88;;;;;;;15.50;100.00;94144.91;5115245;28;20229;-76
2021/09/24 09:26:42;;;;;;;11.23;4.65;;;;;;;15.56;100.00;94146.66;5115089;28;20283;-77
2021/09/24 09:29:11;;;;;;;5.72;3.42;;;;;;;15.59;100.00;94142.78;5114990;28;20205;-77
2021/09/24 09:31:39;;;;;;;6.10;3.67;;;;;;;15.71;100.00;94146.28;5115067;28;20209;-76
2021/09/24 09:34:08;;;;;;;7.32;4.05;;;;;;;15.77;100.00;94137.53;5115193;28;20206;-77
2021/09/24 09:36:37;;;;;;;6.63;4.18;;;;;;;15.81;100.00;94141.31;5115210;28;20220;-76
2021/09/24 09:39:09;;;;;;;6.40;4.28;;;;;;;15.83;100.00;94144.50;5115013;28;20231;-78
2021/09/24 09:41:35;;;;;;;5.82;3.55;;;;;;;15.92;100.00;94152.91;5114836;28;20246;-76
2021/09/24 09:44:04;;;;;;;5.10;3.10;;;;;;;16.11;96.80;94150.22;5115043;28;20212;-77
2021/09/24 09:46:33;;;;;;;5.10;3.35;;;;;;;16.17;92.02;94150.13;5114870;28;20278;-77
2021/09/24 09:49:02;;;;;;;7.25;3.83;;;;;;;16.18;93.08;94151.72;5114864;28;20201;-77
2021/09/24 09:51:29;;;;;;;6.68;4.05;;;;;;;16.23;100.00;94149.19;5114721;28;20204;-76
2021/09/24 09:53:56;;;;;;;4.90;3.20;;;;;;;16.35;93.39;94153.69;5114674;28;20208;-77
2021/09/24 09:56:34;;;;;;;4.85;3.20;;;;;;;16.54;94.03;94143.88;5114415;28;20208;-77
2021/09/24 09:59:01;;;;;;;6.72;3.33;;;;;;;16.78;87.49;94144.69;5114773;28;20201;-77
2021/09/24 10:01:27;;;;;;;8.82;3.35;;;;;;;16.71;91.95;94141.38;5114663;28;20197;-76
2021/09/24 10:03:55;;;;;;;5.00;3.67;;;;;;;16.77;94.86;94137.78;5114491;28;20198;-77
2021/09/24 10:06:24;;;;;;;7.35;3.80;;;;;;;16.76;92.31;94137.00;5114409;28;20217;-76
2021/09/24 10:08:52;;;;;;;5.45;3.50;;;;;;;16.76;92.79;94130.94;5114255;28;20198;-76
2021/09/24 10:11:20;;;;;;;4.82;3.22;;;;;;;16.78;91.82;94134.13;5114117;28;20240;-77
2021/09/24 10:13:53;;;;;;;4.80;3.08;;;;;;;17.01;85.57;94142.06;5114268;28;20284;-77
2021/09/24 10:16:21;;;;;;;4.82;3.35;;;;;;;16.81;83.93;94138.94;5114362;28;20213;-76
2021/09/24 10:18:48;;;;;;;4.60;3.30;;;;;;;16.83;90.03;94135.03;5108351;28;20284;-78
2021/09/24 10:21:15;;;;;;;4.95;3.28;;;;;;;16.64;85.08;94139.63;5113971;28;20194;-77
2021/09/24 10:23:42;;;;;;;4.40;2.72;;;;;;;16.77;81.62;94150.97;5114192;28;20209;-78
2021/09/24 10:26:14;;;;;;;3.50;2.78;;;;;;;16.96;80.73;94139.31;5113749;28;20229;-77
2021/09/24 10:28:43;;;;;;;3.22;2.58;;;;;;;17.15;86.25;94133.91;5114021;28;20219;-77
2021/09/24 10:31:17;;;;;;;5.78;3.50;;;;;;;17.24;84.32;94137.78;5113477;28;20431;-77
2021/09/24 10:33:52;;;;;;;5.70;3.17;;;;;;;17.26;82.15;94137.56;5113833;28;20192;-77
2021/09/24 10:36:40;;;;;;;4.78;2.90;;;;;;;17.31;86.31;94135.03;5113733;28;20647;-77
2021/09/24 10:39:33;;;;;;;3.60;2.85;;;;;;;17.50;86.59;94125.09;5113864;28;20288;-78
2021/09/24 10:42:51;;;;;;;4.10;3.25;;;;;;;17.42;79.88;94128.09;5113848;28;20250;-76
2021/09/24 10:45:22;;;;;;;4.95;3.15;;;;;;;17.19;77.38;94133.19;5101317;28;20284;-77
2021/09/24 10:47:54;;;;;;;4.55;3.15;;;;;;;17.29;82.32;94127.34;5113574;28;20229;-76
2021/09/24 10:51:01;;;;;;;6.15;3.42;;;;;;;17.28;82.89;94125.72;5113512;28;20197;-76
2021/09/24 10:53:40;;;;;;;5.32;3.60;;;;;;;17.55;80.85;94127.81;5113713;28;20201;-77
2021/09/24 10:56:32;;;;;;;5.15;3.47;;;;;;;17.57;78.84;94137.13;5113599;28;20234;-76
2021/09/24 10:59:20;;;;;;;3.88;2.97;;;;;;;17.69;80.71;94138.94;5113772;28;20205;-77
2021/09/24 11:01:48;;;;;;;7.72;3.85;;;;;;;17.59;78.41;94130.81;5113553;28;20205;-77
2021/09/24 11:04:15;;;;;;;4.88;3.17;;;;;;;17.70;81.14;94125.50;5113471;28;20205;-77
2021/09/24 11:06:44;;;;;;;8.63;3.35;;;;;;;17.76;75.42;94121.09;5113309;28;20217;-78
2021/09/24 11:09:13;;;;;;;3.95;2.80;;;;;;;17.81;77.25;94121.19;5113306;28;20655;-77
2021/09/24 11:11:41;;;;;;;4.00;2.65;;;;;;;17.83;73.36;94118.31;5113124;28;20198;-76
2021/09/24 11:14:38;;;;;;;6.95;2.92;;;;;;;17.74;68.67;94123.97;5113268;28;20532;-77
2021/09/24 11:17:08;;;;;;;3.58;2.42;;;;;;;17.49;70.31;94113.75;5113360;28;20262;-77
2021/09/24 11:19:40;;;;;;;4.85;2.63;;;;;;;17.54;73.84;94113.03;5113093;28;20201;-77
2021/09/24 11:22:23;;;;;;;5.60;3.50;;;;;;;17.86;70.76;94115.19;5112599;28;20439;-77
2021/09/24 11:25:06;;;;;;;3.95;2.85;;;;;;;17.89;71.24;94118.19;5115765;28;20205;-76